Terminal Aerodrome Forecast
Issued by NWS

Home | Current Version | Previous Version | Text Only | Print | Product List | Glossary On
Versions: 1 2 3 4 5 6 7 8 9 10 11 12 13 14 15 16 17 18 19 20 21 22 23 24
000
FTUS44 KOUN 230525
TAFGAG
TAF
KGAG 230525Z 2306/2406 16011KT 2SM BR OVC006
      TEMPO 2317/2321 2SM TSRA BR OVC007CB
     FM240300 16015KT 4SM BR OVC010=

USA.gov is the U.S. government's official web portal to all federal, state and local government web resources and services.